Time;durP1;ratioP1;P1;durP2;ratioP2;P2;SDS_P1;SDS_P2;PMS_P1;PMS_P2;Temp;Humidity;BMP_temperature;BMP_pressure;BME280_temperature;BME280_humidity;BME280_pressure;Samples;Min_cycle;Max_cycle;Signal;HPM_P1;HPM_P2
2021/11/18 00:00:25;;;;;;;;;;;23.60;49.30;;;;;;1535962;76;729;-70
2021/11/18 00:02:27;;;;;;;;;;;23.60;49.30;;;;;;1535341;76;1256;-69
2021/11/18 00:04:29;;;;;;;;;;;23.60;49.20;;;;;;1535634;76;797;-70
2021/11/18 00:06:31;;;;;;;;;;;23.60;49.20;;;;;;1535675;76;762;-73
2021/11/18 00:08:33;;;;;;;;;;;23.60;49.20;;;;;;1536508;76;744;-69
2021/11/18 00:10:36;;;;;;;;;;;23.60;49.10;;;;;;1535647;77;724;-71
2021/11/18 00:12:38;;;;;;;;;;;23.60;49.20;;;;;;1544048;75;1116;-70
2021/11/18 00:14:40;;;;;;;;;;;23.60;49.10;;;;;;1531812;76;852;-70
2021/11/18 00:16:42;;;;;;;;;;;23.60;49.20;;;;;;1535467;76;737;-69
2021/11/18 00:18:44;;;;;;;;;;;23.60;49.20;;;;;;1531619;77;1936;-69
2021/11/18 00:20:47;;;;;;;;;;;23.60;49.20;;;;;;1532164;76;785;-68
2021/11/18 00:22:49;;;;;;;;;;;23.60;49.30;;;;;;1534722;76;1344;-69
2021/11/18 00:24:51;;;;;;;;;;;23.60;49.30;;;;;;1530990;76;716;-72
2021/11/18 00:26:54;;;;;;;;;;;23.60;49.20;;;;;;1535292;76;673;-70
2021/11/18 00:28:56;;;;;;;;;;;23.60;49.30;;;;;;1535072;76;782;-70
2021/11/18 00:30:58;;;;;;;;;;;23.60;49.20;;;;;;1534977;76;1141;-70
2021/11/18 00:33:00;;;;;;;;;;;23.60;49.20;;;;;;1535197;76;700;-68
2021/11/18 00:35:03;;;;;;;;;;;23.50;49.20;;;;;;1535130;76;753;-69
2021/11/18 00:37:05;;;;;;;;;;;23.60;49.30;;;;;;1535490;76;715;-69
2021/11/18 00:39:07;;;;;;;;;;;23.50;49.30;;;;;;1535157;76;1917;-69
2021/11/18 00:41:09;;;;;;;;;;;23.60;49.20;;;;;;1534910;76;1178;-69
2021/11/18 00:43:11;;;;;;;;;;;23.60;49.20;;;;;;1535142;76;702;-69
2021/11/18 00:45:13;;;;;;;;;;;23.50;49.20;;;;;;1531201;76;742;-69
2021/11/18 00:47:15;;;;;;;;;;;23.60;49.20;;;;;;1534902;77;730;-70
2021/11/18 00:49:17;;;;;;;;;;;23.60;49.20;;;;;;1531028;76;697;-69
2021/11/18 00:51:19;;;;;;;;;;;23.60;49.30;;;;;;1534469;76;1060;-70
2021/11/18 00:53:23;;;;;;;;;;;23.60;49.20;;;;;;1532730;77;797;-70
2021/11/18 00:55:25;;;;;;;;;;;23.50;49.30;;;;;;1531169;76;703;-71
2021/11/18 00:57:27;;;;;;;;;;;23.50;49.30;;;;;;1534774;77;774;-70
2021/11/18 00:59:30;;;;;;;;;;;23.50;49.30;;;;;;1535908;76;1951;-72
2021/11/18 01:01:32;;;;;;;;;;;23.50;49.30;;;;;;1535657;76;1134;-70
2021/11/18 01:03:34;;;;;;;;;;;23.50;49.40;;;;;;1532021;76;713;-73
2021/11/18 01:05:37;;;;;;;;;;;23.60;49.30;;;;;;1536230;76;727;-71
2021/11/18 01:07:39;;;;;;;;;;;23.50;49.30;;;;;;1535337;76;737;-70
2021/11/18 01:09:41;;;;;;;;;;;23.50;49.40;;;;;;1534003;76;701;-69
2021/11/18 01:11:43;;;;;;;;;;;23.50;49.40;;;;;;1541010;76;1117;-70
2021/11/18 01:13:44;;;;;;;;;;;23.60;49.40;;;;;;1536142;76;711;-69
2021/11/18 01:15:46;;;;;;;;;;;23.50;49.40;;;;;;1535087;77;691;-70
2021/11/18 01:17:48;;;;;;;;;;;23.50;49.40;;;;;;1535335;76;697;-70
2021/11/18 01:19:50;;;;;;;;;;;23.50;49.40;;;;;;1535208;76;1942;-71
2021/11/18 01:21:52;;;;;;;;;;;23.60;49.40;;;;;;1528361;76;1178;-70
2021/11/18 01:23:54;;;;;;;;;;;23.60;49.40;;;;;;1531572;76;720;-72
2021/11/18 01:25:56;;;;;;;;;;;23.60;49.40;;;;;;1528179;76;726;-71
2021/11/18 01:27:59;;;;;;;;;;;23.50;49.50;;;;;;1535200;76;645;-71
2021/11/18 01:30:02;;;;;;;;;;;23.50;49.50;;;;;;1534952;77;761;-70
2021/11/18 01:32:03;;;;;;;;;;;23.50;49.60;;;;;;1540148;76;1228;-72
2021/11/18 01:34:05;;;;;;;;;;;23.50;49.60;;;;;;1543561;76;758;-70
2021/11/18 01:36:07;;;;;;;;;;;23.60;49.60;;;;;;1544993;76;742;-68
2021/11/18 01:38:09;;;;;;;;;;;23.50;49.70;;;;;;1547540;76;1933;-71
2021/11/18 01:40:12;;;;;;;;;;;23.50;49.70;;;;;;1532610;76;731;-73
2021/11/18 01:42:14;;;;;;;;;;;23.50;49.70;;;;;;1539283;76;1161;-70
2021/11/18 01:44:17;;;;;;;;;;;23.50;49.70;;;;;;1535838;77;586;-70
2021/11/18 01:46:20;;;;;;;;;;;23.50;49.70;;;;;;1541341;76;690;-71
2021/11/18 01:48:22;;;;;;;;;;;23.50;49.70;;;;;;1535025;77;765;-70
2021/11/18 01:50:24;;;;;;;;;;;23.50;49.70;;;;;;1534012;77;693;-72
2021/11/18 01:52:27;;;;;;;;;;;23.50;49.70;;;;;;1526253;77;1110;-72
2021/11/18 01:54:30;;;;;;;;;;;23.60;49.70;;;;;;1543209;76;853;-71
2021/11/18 01:56:33;;;;;;;;;;;23.50;49.70;;;;;;1533717;77;801;-70
2021/11/18 01:58:35;;;;;;;;;;;23.50;49.70;;;;;;1540757;76;1905;-72
2021/11/18 02:00:45;;;;;;;;;;;23.50;49.70;;;;;;1545134;76;782;-71
2021/11/18 02:02:47;;;;;;;;;;;23.50;49.70;;;;;;1546051;75;1096;-69
2021/11/18 02:04:49;;;;;;;;;;;23.50;49.70;;;;;;1543542;76;721;-69
2021/11/18 02:06:53;;;;;;;;;;;23.50;49.70;;;;;;1548847;76;754;-70
2021/11/18 02:08:55;;;;;;;;;;;23.50;49.70;;;;;;1528433;76;1038;-69
2021/11/18 02:11:00;;;;;;;;;;;23.50;49.70;;;;;;1537904;74;1116;-68
2021/11/18 02:13:02;;;;;;;;;;;23.50;49.70;;;;;;1556373;76;1265;-70
2021/11/18 02:15:04;;;;;;;;;;;23.50;49.70;;;;;;1547211;76;781;-71
2021/11/18 02:17:06;;;;;;;;;;;23.50;49.70;;;;;;1553705;76;786;-71
2021/11/18 02:19:08;;;;;;;;;;;23.50;49.80;;;;;;1521047;76;1932;-70
2021/11/18 02:21:11;;;;;;;;;;;23.50;49.70;;;;;;1533579;76;1181;-70
2021/11/18 02:23:17;;;;;;;;;;;23.50;49.70;;;;;;1527580;75;642;-69
2021/11/18 02:25:19;;;;;;;;;;;23.50;49.70;;;;;;1536501;76;676;-69
2021/11/18 02:27:22;;;;;;;;;;;23.50;49.70;;;;;;1518591;77;1138;-69
2021/11/18 02:29:23;;;;;;;;;;;23.50;49.70;;;;;;1541065;76;684;-68
2021/11/18 02:31:36;;;;;;;;;;;23.50;49.70;;;;;;1538490;76;1098;-68
2021/11/18 02:33:38;;;;;;;;;;;23.50;49.70;;;;;;1542869;76;730;-70
2021/11/18 02:35:40;;;;;;;;;;;23.50;49.70;;;;;;1536273;76;729;-69
2021/11/18 02:37:42;;;;;;;;;;;23.50;49.70;;;;;;1543100;76;782;-68
2021/11/18 02:39:44;;;;;;;;;;;23.50;49.70;;;;;;1541535;75;1971;-70
2021/11/18 02:41:46;;;;;;;;;;;23.50;49.70;;;;;;1535800;76;1146;-74
2021/11/18 02:43:48;;;;;;;;;;;23.50;49.80;;;;;;1545651;76;706;-70
2021/11/18 02:45:50;;;;;;;;;;;23.50;49.70;;;;;;1553676;75;607;-71
2021/11/18 02:47:54;;;;;;;;;;;23.50;49.80;;;;;;1534690;76;544;-71
2021/11/18 02:49:56;;;;;;;;;;;23.50;49.70;;;;;;1546439;76;1435;-72
2021/11/18 02:51:58;;;;;;;;;;;23.50;49.70;;;;;;1527715;76;1154;-69
2021/11/18 02:54:00;;;;;;;;;;;23.50;49.70;;;;;;1534002;76;765;-71
2021/11/18 02:56:03;;;;;;;;;;;23.50;49.70;;;;;;1537354;76;673;-69
2021/11/18 02:58:04;;;;;;;;;;;23.50;49.80;;;;;;1537191;76;711;-70
2021/11/18 03:00:11;;;;;;;;;;;23.50;49.80;;;;;;1551333;76;1936;-71
2021/11/18 03:02:13;;;;;;;;;;;23.50;49.80;;;;;;1530097;76;1119;-70
2021/11/18 03:04:15;;;;;;;;;;;23.50;49.80;;;;;;1533200;76;805;-72
2021/11/18 03:06:17;;;;;;;;;;;23.40;49.70;;;;;;1516275;76;719;-71
2021/11/18 03:08:20;;;;;;;;;;;23.50;49.80;;;;;;1542969;76;738;-73
2021/11/18 03:10:22;;;;;;;;;;;23.50;49.80;;;;;;1538949;76;656;-72
2021/11/18 03:12:24;;;;;;;;;;;23.40;49.70;;;;;;1538540;76;1112;-70
2021/11/18 03:14:27;;;;;;;;;;;23.50;49.80;;;;;;1551612;75;728;-71
2021/11/18 03:16:29;;;;;;;;;;;23.40;49.70;;;;;;1542601;76;651;-71
2021/11/18 03:18:31;;;;;;;;;;;23.40;49.70;;;;;;1544254;75;807;-70
2021/11/18 03:20:33;;;;;;;;;;;23.40;49.70;;;;;;1548781;76;1945;-70
2021/11/18 03:22:35;;;;;;;;;;;23.50;49.80;;;;;;1524676;75;1129;-71
2021/11/18 03:24:36;;;;;;;;;;;23.50;49.80;;;;;;1540250;75;738;-71
2021/11/18 03:26:38;;;;;;;;;;;23.50;49.80;;;;;;1533761;76;679;-71
2021/11/18 03:28:40;;;;;;;;;;;23.40;49.70;;;;;;1536474;76;720;-72
2021/11/18 03:30:44;;;;;;;;;;;23.50;49.80;;;;;;1538647;76;747;-71
2021/11/18 03:32:46;;;;;;;;;;;23.50;49.80;;;;;;1529702;76;1082;-71
2021/11/18 03:34:48;;;;;;;;;;;23.50;49.80;;;;;;1546880;76;711;-71
2021/11/18 03:36:50;;;;;;;;;;;23.50;49.70;;;;;;1550633;76;729;-71
2021/11/18 03:38:52;;;;;;;;;;;23.50;49.80;;;;;;1538529;76;1927;-70
2021/11/18 03:41:01;;;;;;;;;;;23.50;49.70;;;;;;1534745;75;1184;-71
2021/11/18 03:42:59;;;;;;;;;;;23.50;49.70;;;;;;1537613;76;965;-72
2021/11/18 03:45:00;;;;;;;;;;;23.50;49.80;;;;;;1551861;76;723;-71
2021/11/18 03:47:06;;;;;;;;;;;23.60;49.70;;;;;;1547091;76;715;-71
2021/11/18 03:49:08;;;;;;;;;;;23.60;49.70;;;;;;1543148;76;806;-71
2021/11/18 03:53:34;;;;;;;;;;;23.60;50.00;;;;;;1565624;75;1248;-71
2021/11/18 03:55:36;;;;;;;;;;;23.80;49.50;;;;;;1554503;75;783;-71
2021/11/18 03:57:38;;;;;;;;;;;23.70;49.40;;;;;;1550406;75;722;-71
2021/11/18 03:59:40;;;;;;;;;;;23.70;49.40;;;;;;1546365;75;1947;-71
2021/11/18 04:01:43;;;;;;;;;;;23.70;49.50;;;;;;1553109;75;785;-70
2021/11/18 04:03:45;;;;;;;;;;;23.60;49.50;;;;;;1555411;76;1154;-71
2021/11/18 04:05:47;;;;;;;;;;;23.60;49.60;;;;;;1538394;73;223912;-61
2021/11/18 04:07:48;;;;;;;;;;;23.60;49.70;;;;;;1521131;77;777;-61
2021/11/18 04:09:50;;;;;;;;;;;23.60;49.70;;;;;;1528086;76;784;-58
2021/11/18 04:11:53;;;;;;;;;;;23.60;49.90;;;;;;1520556;77;769;-59
2021/11/18 04:13:55;;;;;;;;;;;23.60;49.90;;;;;;1531645;76;745;-59
2021/11/18 04:15:56;;;;;;;;;;;23.60;50.00;;;;;;1519397;77;1161;-59
2021/11/18 04:17:59;;;;;;;;;;;23.60;50.00;;;;;;1535652;76;686;-58
2021/11/18 04:20:01;;;;;;;;;;;23.60;50.10;;;;;;1545379;75;1947;-58
2021/11/18 04:22:04;;;;;;;;;;;23.60;50.20;;;;;;1536646;76;889;-58
2021/11/18 04:24:06;;;;;;;;;;;23.60;50.10;;;;;;1532752;75;753;-61
2021/11/18 04:26:08;;;;;;;;;;;23.60;50.10;;;;;;1541798;75;1167;-61
2021/11/18 04:28:10;;;;;;;;;;;23.60;50.00;;;;;;1545498;76;727;-61
2021/11/18 04:30:13;;;;;;;;;;;23.60;50.20;;;;;;1544051;75;675;-62
2021/11/18 04:32:19;;;;;;;;;;;23.60;50.00;;;;;;1542389;76;745;-65
2021/11/18 04:34:21;;;;;;;;;;;23.60;50.10;;;;;;1540011;76;1852;-60
2021/11/18 04:36:23;;;;;;;;;;;23.60;50.00;;;;;;1537047;75;1170;-60
2021/11/18 04:38:26;;;;;;;;;;;23.60;50.00;;;;;;1546880;77;749;-59
2021/11/18 04:40:31;;;;;;;;;;;23.60;50.10;;;;;;1547313;75;1943;-58
2021/11/18 04:42:31;;;;;;;;;;;23.60;50.00;;;;;;1545028;76;1499;-59
2021/11/18 04:44:35;;;;;;;;;;;23.60;50.00;;;;;;1542815;77;748;-59
2021/11/18 04:46:37;;;;;;;;;;;23.60;50.00;;;;;;1546504;77;1154;-59
2021/11/18 04:48:38;;;;;;;;;;;23.60;49.90;;;;;;1548237;77;776;-59
2021/11/18 04:50:40;;;;;;;;;;;23.60;50.00;;;;;;1537031;75;780;-60
2021/11/18 04:52:42;;;;;;;;;;;23.60;49.90;;;;;;1534358;75;644;-61
2021/11/18 04:54:45;;;;;;;;;;;23.60;49.90;;;;;;1537890;75;852;-59
2021/11/18 04:56:47;;;;;;;;;;;23.70;50.00;;;;;;1527609;75;1127;-59
2021/11/18 04:58:49;;;;;;;;;;;23.60;49.90;;;;;;1542346;77;712;-59
2021/11/18 05:00:52;;;;;;;;;;;23.60;49.80;;;;;;1539781;75;1938;-59
2021/11/18 05:02:54;;;;;;;;;;;23.60;49.90;;;;;;1546646;75;771;-58
2021/11/18 05:04:56;;;;;;;;;;;23.70;50.10;;;;;;1546824;75;786;-60
2021/11/18 05:06:58;;;;;;;;;;;23.60;50.00;;;;;;1542550;75;1169;-58
2021/11/18 05:09:00;;;;;;;;;;;23.70;50.20;;;;;;1541490;76;786;-59
2021/11/18 05:11:02;;;;;;;;;;;23.70;50.10;;;;;;1544595;75;788;-59
2021/11/18 05:13:04;;;;;;;;;;;23.70;50.10;;;;;;1540166;75;827;-59
2021/11/18 05:15:06;;;;;;;;;;;23.70;50.00;;;;;;1534681;76;773;-58
2021/11/18 05:17:08;;;;;;;;;;;23.70;50.00;;;;;;1543357;76;1119;-58
2021/11/18 05:19:10;;;;;;;;;;;23.70;50.10;;;;;;1543536;75;768;-58
2021/11/18 05:21:12;;;;;;;;;;;23.70;50.10;;;;;;1539745;75;1951;-59
2021/11/18 05:23:14;;;;;;;;;;;23.70;50.00;;;;;;1534386;75;635;-58
2021/11/18 05:25:16;;;;;;;;;;;23.70;50.00;;;;;;1543768;75;674;-60
2021/11/18 05:27:20;;;;;;;;;;;23.70;50.00;;;;;;1550393;75;735;-59
2021/11/18 05:29:22;;;;;;;;;;;23.70;50.00;;;;;;1544531;75;792;-60
2021/11/18 05:31:24;;;;;;;;;;;23.70;50.00;;;;;;1547792;75;797;-60
2021/11/18 05:33:26;;;;;;;;;;;23.70;50.00;;;;;;1543872;75;775;-60
2021/11/18 05:35:29;;;;;;;;;;;23.70;50.00;;;;;;1541053;76;1132;-59
2021/11/18 05:37:31;;;;;;;;;;;23.70;49.90;;;;;;1543449;76;919;-58
2021/11/18 05:39:33;;;;;;;;;;;23.70;50.00;;;;;;1530401;76;1909;-58
2021/11/18 05:41:35;;;;;;;;;;;23.80;49.90;;;;;;1542012;75;680;-58
2021/11/18 05:43:40;;;;;;;;;;;23.70;49.90;;;;;;1546394;76;780;-59
2021/11/18 05:45:40;;;;;;;;;;;23.70;49.80;;;;;;1546034;76;1658;-61
2021/11/18 05:47:42;;;;;;;;;;;23.70;50.00;;;;;;1542084;76;721;-59
2021/11/18 05:49:44;;;;;;;;;;;23.70;49.80;;;;;;1546130;75;731;-58
2021/11/18 05:51:48;;;;;;;;;;;23.80;49.80;;;;;;1545801;75;802;-57
2021/11/18 05:53:50;;;;;;;;;;;23.70;49.90;;;;;;1541190;75;806;-58
2021/11/18 05:55:52;;;;;;;;;;;23.70;49.70;;;;;;1547156;76;1143;-58
2021/11/18 05:57:54;;;;;;;;;;;23.80;49.70;;;;;;1538955;76;823;-59
2021/11/18 05:59:56;;;;;;;;;;;23.80;49.60;;;;;;1537112;75;1948;-59
2021/11/18 06:01:59;;;;;;;;;;;23.80;49.70;;;;;;1546236;76;867;-58
2021/11/18 06:04:01;;;;;;;;;;;23.90;49.70;;;;;;1540842;75;781;-58
2021/11/18 06:06:02;;;;;;;;;;;23.90;49.70;;;;;;1528600;75;1151;-59
2021/11/18 06:08:05;;;;;;;;;;;23.80;49.60;;;;;;1548116;75;692;-58
2021/11/18 06:10:07;;;;;;;;;;;23.90;49.60;;;;;;1527146;75;689;-60
2021/11/18 06:12:09;;;;;;;;;;;24.00;49.40;;;;;;1546520;75;742;-62
2021/11/18 06:14:11;;;;;;;;;;;24.00;49.30;;;;;;1540429;76;745;-58
2021/11/18 06:16:13;;;;;;;;;;;24.00;49.40;;;;;;1546318;76;1148;-60
2021/11/18 06:18:15;;;;;;;;;;;24.00;49.40;;;;;;1548197;77;753;-64
2021/11/18 06:20:17;;;;;;;;;;;23.90;49.30;;;;;;1538179;75;1943;-60
2021/11/18 06:22:24;;;;;;;;;;;24.00;49.40;;;;;;1529956;75;810;-60
2021/11/18 06:24:22;;;;;;;;;;;24.20;48.90;;;;;;1534744;75;1633;-60
2021/11/18 06:26:27;;;;;;;;;;;24.30;48.80;;;;;;1543793;77;1193;-60
2021/11/18 06:28:27;;;;;;;;;;;24.30;48.60;;;;;;1538214;75;1703;-63
2021/11/18 06:30:31;;;;;;;;;;;24.30;48.40;;;;;;1531428;77;780;-64
2021/11/18 06:32:33;;;;;;;;;;;24.40;48.30;;;;;;1534484;77;696;-60
2021/11/18 06:34:35;;;;;;;;;;;24.30;48.40;;;;;;1528601;75;746;-60
2021/11/18 06:36:37;;;;;;;;;;;24.20;48.50;;;;;;1536630;75;1123;-61
2021/11/18 06:38:40;;;;;;;;;;;24.30;48.60;;;;;;1534467;77;773;-59
2021/11/18 06:40:44;;;;;;;;;;;24.40;48.30;;;;;;1532952;75;1944;-65
2021/11/18 06:42:46;;;;;;;;;;;24.50;48.40;;;;;;1547241;77;721;-59
2021/11/18 06:44:48;;;;;;;;;;;24.30;48.60;;;;;;1544563;75;734;-64
2021/11/18 06:46:50;;;;;;;;;;;24.30;48.80;;;;;;1546189;75;1165;-59
2021/11/18 06:48:53;;;;;;;;;;;24.40;48.60;;;;;;1530208;75;854;-59
2021/11/18 06:50:55;;;;;;;;;;;24.40;48.40;;;;;;1533985;75;823;-63
2021/11/18 06:52:57;;;;;;;;;;;24.30;48.50;;;;;;1537786;75;715;-63
2021/11/18 06:54:59;;;;;;;;;;;24.30;48.40;;;;;;1537988;75;802;-62
2021/11/18 06:57:00;;;;;;;;;;;24.20;48.30;;;;;;1537646;75;1119;-60
2021/11/18 06:59:02;;;;;;;;;;;24.10;48.20;;;;;;1542957;75;735;-60
2021/11/18 07:01:05;;;;;;;;;;;24.10;48.10;;;;;;1538346;75;1931;-60
2021/11/18 07:03:07;;;;;;;;;;;24.10;48.10;;;;;;1536470;75;727;-60
2021/11/18 07:05:09;;;;;;;;;;;24.10;48.10;;;;;;1535048;75;724;-60
2021/11/18 07:07:11;;;;;;;;;;;24.10;48.10;;;;;;1538160;75;1149;-60
2021/11/18 07:09:13;;;;;;;;;;;24.00;47.90;;;;;;1530924;75;703;-60
2021/11/18 07:11:16;;;;;;;;;;;24.00;47.80;;;;;;1522155;75;715;-64
2021/11/18 07:13:22;;;;;;;;;;;24.10;48.00;;;;;;1546206;77;763;-63
2021/11/18 07:15:24;;;;;;;;;;;24.10;48.00;;;;;;1540522;75;1159;-60
2021/11/18 07:17:26;;;;;;;;;;;24.10;48.00;;;;;;1539710;76;806;-60
2021/11/18 07:19:28;;;;;;;;;;;24.00;47.90;;;;;;1538697;76;733;-65
2021/11/18 07:21:32;;;;;;;;;;;24.00;47.90;;;;;;1523364;77;1960;-63
2021/11/18 07:23:34;;;;;;;;;;;24.00;47.80;;;;;;1519598;77;808;-60
2021/11/18 07:25:36;;;;;;;;;;;24.00;47.80;;;;;;1544777;76;1138;-59
2021/11/18 07:27:38;;;;;;;;;;;24.10;48.00;;;;;;1530639;77;770;-60
2021/11/18 07:29:39;;;;;;;;;;;24.00;47.90;;;;;;1520567;76;778;-59
2021/11/18 07:31:41;;;;;;;;;;;24.00;47.80;;;;;;1543733;76;738;-61
2021/11/18 07:33:43;;;;;;;;;;;24.00;47.80;;;;;;1546239;76;728;-62
2021/11/18 07:35:45;;;;;;;;;;;24.00;47.80;;;;;;1545056;76;1151;-63
2021/11/18 07:37:47;;;;;;;;;;;23.90;47.80;;;;;;1546496;76;803;-60
2021/11/18 07:39:49;;;;;;;;;;;24.00;47.80;;;;;;1544612;75;742;-62
2021/11/18 07:41:52;;;;;;;;;;;24.00;47.80;;;;;;1546434;76;1940;-59
2021/11/18 07:43:53;;;;;;;;;;;24.00;47.80;;;;;;1533386;75;790;-60
2021/11/18 07:45:57;;;;;;;;;;;24.00;47.80;;;;;;1554954;75;1153;-61
2021/11/18 07:47:59;;;;;;;;;;;24.00;47.80;;;;;;1547140;75;1869;-62
2021/11/18 07:50:02;;;;;;;;;;;24.00;47.90;;;;;;1538250;75;723;-60
2021/11/18 07:52:05;;;;;;;;;;;24.00;47.80;;;;;;1548244;77;710;-63
2021/11/18 07:54:07;;;;;;;;;;;24.00;47.80;;;;;;1546971;75;655;-65
2021/11/18 07:56:09;;;;;;;;;;;23.90;47.80;;;;;;1527829;75;1158;-64
2021/11/18 07:58:11;;;;;;;;;;;24.00;47.80;;;;;;1531051;75;784;-65
2021/11/18 08:00:13;;;;;;;;;;;24.00;47.80;;;;;;1533921;77;804;-59
2021/11/18 08:02:15;;;;;;;;;;;24.00;47.80;;;;;;1544968;75;1936;-64
2021/11/18 08:04:17;;;;;;;;;;;24.00;47.80;;;;;;1547474;75;788;-60
2021/11/18 08:06:24;;;;;;;;;;;24.00;47.90;;;;;;1548174;75;1127;-60
2021/11/18 08:08:25;;;;;;;;;;;23.90;47.80;;;;;;1541453;76;762;-63
2021/11/18 08:10:27;;;;;;;;;;;23.90;47.80;;;;;;1537511;77;747;-60
2021/11/18 08:12:30;;;;;;;;;;;23.90;47.90;;;;;;1535206;75;749;-63
2021/11/18 08:14:32;;;;;;;;;;;23.90;47.80;;;;;;1545472;75;804;-60
2021/11/18 08:16:34;;;;;;;;;;;23.90;47.80;;;;;;1541415;75;1143;-59
2021/11/18 08:18:36;;;;;;;;;;;23.90;47.80;;;;;;1547557;77;751;-60
2021/11/18 08:20:38;;;;;;;;;;;23.90;47.80;;;;;;1542985;75;1914;-58
2021/11/18 08:22:39;;;;;;;;;;;23.90;47.80;;;;;;1517110;76;766;-59
2021/11/18 08:24:43;;;;;;;;;;;23.90;47.80;;;;;;1544649;76;737;-58
2021/11/18 08:26:45;;;;;;;;;;;23.90;47.70;;;;;;1558813;75;1178;-58
2021/11/18 08:28:47;;;;;;;;;;;23.90;47.70;;;;;;1553276;76;795;-58
2021/11/18 08:30:49;;;;;;;;;;;23.90;47.80;;;;;;1527624;77;741;-58
2021/11/18 08:32:51;;;;;;;;;;;23.90;47.70;;;;;;1517792;77;781;-59
2021/11/18 08:34:53;;;;;;;;;;;23.90;47.70;;;;;;1547256;76;787;-58
2021/11/18 08:36:55;;;;;;;;;;;23.90;47.80;;;;;;1545352;76;1103;-59
2021/11/18 08:38:57;;;;;;;;;;;23.90;47.80;;;;;;1545140;76;770;-60
2021/11/18 08:41:03;;;;;;;;;;;23.90;47.80;;;;;;1545265;76;1937;-59
2021/11/18 08:43:05;;;;;;;;;;;23.90;47.80;;;;;;1545147;75;778;-59
2021/11/18 08:45:07;;;;;;;;;;;23.90;47.80;;;;;;1544039;76;778;-60
2021/11/18 08:47:10;;;;;;;;;;;23.90;47.80;;;;;;1543430;76;1130;-58
2021/11/18 08:49:12;;;;;;;;;;;23.90;47.80;;;;;;1545050;76;671;-59
2021/11/18 08:51:14;;;;;;;;;;;23.90;47.80;;;;;;1543054;75;734;-59
2021/11/18 08:53:16;;;;;;;;;;;23.90;47.80;;;;;;1542837;76;727;-60
2021/11/18 08:55:26;;;;;;;;;;;23.90;47.80;;;;;;1544307;75;1122;-58
2021/11/18 08:57:27;;;;;;;;;;;23.90;47.80;;;;;;1539337;76;694;-58
2021/11/18 08:59:29;;;;;;;;;;;23.90;47.80;;;;;;1546748;76;774;-58
2021/11/18 09:01:35;;;;;;;;;;;24.00;47.80;;;;;;1536612;75;1945;-58
2021/11/18 09:03:37;;;;;;;;;;;23.90;47.70;;;;;;1546726;75;697;-58
2021/11/18 09:05:39;;;;;;;;;;;23.90;47.80;;;;;;1542023;77;1167;-58
2021/11/18 09:07:40;;;;;;;;;;;23.90;47.70;;;;;;1543160;75;814;-58
2021/11/18 09:09:42;;;;;;;;;;;24.00;47.70;;;;;;1535493;76;719;-58
2021/11/18 09:11:45;;;;;;;;;;;23.90;47.70;;;;;;1542171;75;692;-59
2021/11/18 09:13:46;;;;;;;;;;;24.00;47.70;;;;;;1543094;76;731;-59
2021/11/18 09:15:48;;;;;;;;;;;24.00;47.60;;;;;;1544402;76;1160;-58
2021/11/18 09:17:50;;;;;;;;;;;24.00;47.60;;;;;;1546031;75;725;-58
2021/11/18 09:19:52;;;;;;;;;;;24.00;47.60;;;;;;1546794;75;629;-58
2021/11/18 09:21:54;;;;;;;;;;;24.00;47.60;;;;;;1542520;76;1917;-59
2021/11/18 09:23:57;;;;;;;;;;;24.00;47.60;;;;;;1543171;75;796;-58
2021/11/18 09:25:59;;;;;;;;;;;24.00;47.60;;;;;;1546021;75;1187;-58
2021/11/18 09:28:01;;;;;;;;;;;24.00;47.60;;;;;;1540693;75;720;-58
2021/11/18 09:30:04;;;;;;;;;;;24.00;47.60;;;;;;1532861;75;737;-58
2021/11/18 09:32:06;;;;;;;;;;;24.00;47.60;;;;;;1547262;76;774;-59
2021/11/18 09:34:08;;;;;;;;;;;24.00;47.60;;;;;;1547215;76;764;-58
2021/11/18 09:36:10;;;;;;;;;;;24.00;47.60;;;;;;1542836;75;1153;-59
2021/11/18 09:38:12;;;;;;;;;;;24.00;47.60;;;;;;1546694;76;664;-58
2021/11/18 09:40:16;;;;;;;;;;;24.00;47.60;;;;;;1545929;76;819;-59
2021/11/18 09:42:19;;;;;;;;;;;24.00;47.60;;;;;;1546021;76;1935;-59
2021/11/18 09:44:39;;;;;;;;;;;24.00;47.60;;;;;;1543389;75;711;-58
2021/11/18 09:46:43;;;;;;;;;;;24.00;47.60;;;;;;1544517;76;1145;-58
2021/11/18 09:48:46;;;;;;;;;;;24.00;47.60;;;;;;1547170;76;746;-58
2021/11/18 09:50:53;;;;;;;;;;;24.00;47.60;;;;;;1544855;76;778;-58
2021/11/18 09:53:02;;;;;;;;;;;24.00;47.50;;;;;;1512421;74;219858;-71
2021/11/18 09:55:06;;;;;;;;;;;24.00;47.50;;;;;;1525969;77;1088;-73
2021/11/18 09:57:09;;;;;;;;;;;24.00;47.50;;;;;;1541475;77;730;-71
2021/11/18 09:59:28;;;;;;;;;;;24.00;47.50;;;;;;1538989;76;1202;-72
2021/11/18 10:01:48;;;;;;;;;;;24.00;47.50;;;;;;1522159;77;1921;-73
2021/11/18 10:03:51;;;;;;;;;;;24.00;47.50;;;;;;1524674;77;783;-72
2021/11/18 10:05:56;;;;;;;;;;;24.00;47.50;;;;;;1522933;77;1703;-72
2021/11/18 10:07:59;;;;;;;;;;;24.00;47.50;;;;;;1554397;72;221910;-61
2021/11/18 10:10:09;;;;;;;;;;;24.00;47.40;;;;;;1527457;76;788;-59
2021/11/18 10:12:15;;;;;;;;;;;24.00;47.40;;;;;;1552273;76;1664;-60
2021/11/18 10:14:19;;;;;;;;;;;24.00;47.40;;;;;;1525228;76;687;-59
2021/11/18 10:16:25;;;;;;;;;;;24.00;47.40;;;;;;1535282;76;1672;-59
2021/11/18 10:18:29;;;;;;;;;;;24.10;47.50;;;;;;1513741;78;823;-59
2021/11/18 10:20:35;;;;;;;;;;;24.10;47.50;;;;;;1509713;78;780;-59
2021/11/18 10:22:38;;;;;;;;;;;24.10;47.50;;;;;;1500755;78;1974;-60
2021/11/18 10:24:41;;;;;;;;;;;24.20;47.40;;;;;;1506089;78;754;-60
2021/11/18 10:26:47;;;;;;;;;;;24.20;47.40;;;;;;1505643;78;1136;-60
2021/11/18 10:28:51;;;;;;;;;;;24.20;47.30;;;;;;1501157;78;802;-60
2021/11/18 10:30:54;;;;;;;;;;;24.30;47.30;;;;;;1505913;78;787;-61
2021/11/18 10:33:04;;;;;;;;;;;24.30;47.30;;;;;;1502063;78;794;-61
2021/11/18 10:35:19;;;;;;;;;;;24.40;47.20;;;;;;1504063;78;1837;-59
2021/11/18 10:37:25;;;;;;;;;;;24.40;47.10;;;;;;1503943;78;1868;-58
2021/11/18 10:39:29;;;;;;;;;;;24.40;46.90;;;;;;1508362;78;718;-57
2021/11/18 10:41:31;;;;;;;;;;;24.50;47.00;;;;;;1499574;78;1934;-57
2021/11/18 10:43:34;;;;;;;;;;;24.60;46.80;;;;;;1502712;78;615;-60
2021/11/18 10:45:40;;;;;;;;;;;24.50;46.70;;;;;;1501805;78;1151;-61
2021/11/18 10:47:53;;;;;;;;;;;24.50;46.80;;;;;;1502725;78;733;-59
2021/11/18 10:49:59;;;;;;;;;;;24.50;46.80;;;;;;1503795;78;772;-59
2021/11/18 10:52:03;;;;;;;;;;;24.50;46.80;;;;;;1499992;78;1840;-61
2021/11/18 10:54:06;;;;;;;;;;;24.40;46.80;;;;;;1499103;78;621;-59
2021/11/18 10:56:13;;;;;;;;;;;24.50;46.80;;;;;;1500786;78;1850;-59
2021/11/18 10:58:16;;;;;;;;;;;24.50;46.80;;;;;;1502957;78;793;-61
2021/11/18 11:00:21;;;;;;;;;;;24.40;46.80;;;;;;1500826;78;1133;-59
2021/11/18 11:02:28;;;;;;;;;;;24.40;46.80;;;;;;1503109;78;1918;-59
2021/11/18 11:04:40;;;;;;;;;;;24.40;46.90;;;;;;1499190;78;1948;-59
2021/11/18 11:06:46;;;;;;;;;;;24.40;47.00;;;;;;1501246;78;1176;-59
2021/11/18 11:08:50;;;;;;;;;;;24.30;47.10;;;;;;1512978;77;771;-58
2021/11/18 11:10:53;;;;;;;;;;;24.30;47.10;;;;;;1510502;77;888;-57
2021/11/18 11:12:57;;;;;;;;;;;24.30;47.10;;;;;;1511284;77;750;-58
2021/11/18 11:15:01;;;;;;;;;;;24.30;47.10;;;;;;1515585;77;703;-59
2021/11/18 11:17:22;;;;;;;;;;;24.20;47.10;;;;;;1512925;78;1147;-58
2021/11/18 11:19:31;;;;;;;;;;;24.20;47.10;;;;;;1516763;77;722;-59
2021/11/18 11:21:35;;;;;;;;;;;24.20;47.10;;;;;;1512770;77;1933;-59
2021/11/18 11:23:55;;;;;;;;;;;24.20;47.20;;;;;;1514809;77;989;-59
2021/11/18 11:26:04;;;;;;;;;;;24.20;47.20;;;;;;1507205;77;1141;-58
2021/11/18 11:28:07;;;;;;;;;;;24.20;47.10;;;;;;1516451;77;715;-59
2021/11/18 11:30:17;;;;;;;;;;;24.20;47.10;;;;;;1496079;77;1677;-59
2021/11/18 11:32:20;;;;;;;;;;;24.20;47.20;;;;;;1514809;77;1891;-59
2021/11/18 11:34:33;;;;;;;;;;;24.20;47.10;;;;;;1511305;77;934;-58
2021/11/18 11:36:37;;;;;;;;;;;24.20;47.10;;;;;;1513560;77;1806;-59
2021/11/18 11:38:40;;;;;;;;;;;24.20;47.10;;;;;;1513707;77;758;-58
2021/11/18 11:41:00;;;;;;;;;;;24.20;47.10;;;;;;1511473;77;1155;-59
2021/11/18 11:43:10;;;;;;;;;;;24.20;47.10;;;;;;1506641;77;1949;-60
2021/11/18 11:45:13;;;;;;;;;;;24.20;47.20;;;;;;1505751;77;1900;-58
2021/11/18 11:47:33;;;;;;;;;;;24.20;47.20;;;;;;1510058;77;1074;-59
2021/11/18 11:49:39;;;;;;;;;;;24.20;47.10;;;;;;1510881;77;787;-59
2021/11/18 11:51:46;;;;;;;;;;;24.20;47.10;;;;;;1512804;77;978;-59
2021/11/18 11:53:55;;;;;;;;;;;24.20;47.10;;;;;;1514244;77;1887;-59
2021/11/18 11:56:16;;;;;;;;;;;24.20;47.20;;;;;;1514520;77;1102;-59
2021/11/18 11:58:36;;;;;;;;;;;24.20;47.10;;;;;;1513613;77;715;-59
2021/11/18 12:00:39;;;;;;;;;;;24.20;47.20;;;;;;1497685;77;770;-59
2021/11/18 12:02:43;;;;;;;;;;;24.20;47.20;;;;;;1510931;77;1941;-59
2021/11/18 12:04:46;;;;;;;;;;;24.10;47.20;;;;;;1523162;77;1976;-59
2021/11/18 12:06:49;;;;;;;;;;;24.20;47.20;;;;;;1508205;77;1211;-58
2021/11/18 12:08:53;;;;;;;;;;;24.20;47.20;;;;;;1493020;77;811;-60
2021/11/18 12:11:02;;;;;;;;;;;24.20;47.20;;;;;;1507322;77;760;-60
2021/11/18 12:13:15;;;;;;;;;;;24.10;47.20;;;;;;1514843;77;734;-59
2021/11/18 12:15:18;;;;;;;;;;;24.10;47.20;;;;;;1511043;77;2240;-59
2021/11/18 12:17:22;;;;;;;;;;;24.20;47.20;;;;;;1508340;77;691;-60